sensor_id;sensor_type;location;lat;lon;timestamp;P1;durP1;ratioP1;P2;durP2;ratioP2
3811;SDS011;1921;49.368;11.068;2022-07-04T00:02:10;58.10;;;51.90;;
3811;SDS011;1921;49.368;11.068;2022-07-04T00:04:35;58.07;;;51.77;;
3811;SDS011;1921;49.368;11.068;2022-07-04T00:07:01;59.50;;;52.00;;
3811;SDS011;1921;49.368;11.068;2022-07-04T00:09:27;58.03;;;51.73;;
3811;SDS011;1921;49.368;11.068;2022-07-04T00:11:53;57.13;;;51.03;;
3811;SDS011;1921;49.368;11.068;2022-07-04T00:14:18;61.90;;;52.27;;
3811;SDS011;1921;49.368;11.068;2022-07-04T00:16:44;58.97;;;52.37;;
3811;SDS011;1921;49.368;11.068;2022-07-04T00:19:10;58.63;;;52.23;;
3811;SDS011;1921;49.368;11.068;2022-07-04T00:21:36;60.30;;;51.77;;
3811;SDS011;1921;49.368;11.068;2022-07-04T00:24:01;57.50;;;51.40;;
3811;SDS011;1921;49.368;11.068;2022-07-04T00:26:27;60.60;;;52.33;;
3811;SDS011;1921;49.368;11.068;2022-07-04T00:28:53;64.73;;;52.43;;
3811;SDS011;1921;49.368;11.068;2022-07-04T00:31:19;63.60;;;52.63;;
3811;SDS011;1921;49.368;11.068;2022-07-04T00:33:45;60.93;;;51.90;;
3811;SDS011;1921;49.368;11.068;2022-07-04T00:36:10;58.97;;;52.10;;
3811;SDS011;1921;49.368;11.068;2022-07-04T00:38:37;59.00;;;51.93;;
3811;SDS011;1921;49.368;11.068;2022-07-04T00:41:02;58.43;;;52.03;;
3811;SDS011;1921;49.368;11.068;2022-07-04T00:43:28;61.80;;;52.53;;
3811;SDS011;1921;49.368;11.068;2022-07-04T00:45:55;59.00;;;52.03;;
3811;SDS011;1921;49.368;11.068;2022-07-04T00:48:20;58.13;;;51.83;;
3811;SDS011;1921;49.368;11.068;2022-07-04T00:50:46;58.63;;;52.07;;
3811;SDS011;1921;49.368;11.068;2022-07-04T00:53:16;60.50;;;52.70;;
3811;SDS011;1921;49.368;11.068;2022-07-04T00:55:47;60.43;;;52.20;;
3811;SDS011;1921;49.368;11.068;2022-07-04T00:58:14;59.30;;;51.97;;
3811;SDS011;1921;49.368;11.068;2022-07-04T01:00:40;66.30;;;51.93;;
3811;SDS011;1921;49.368;11.068;2022-07-04T01:03:07;58.27;;;51.90;;
3811;SDS011;1921;49.368;11.068;2022-07-04T01:05:33;61.10;;;52.27;;
3811;SDS011;1921;49.368;11.068;2022-07-04T01:07:58;62.17;;;53.10;;
3811;SDS011;1921;49.368;11.068;2022-07-04T01:10:25;61.07;;;52.37;;
3811;SDS011;1921;49.368;11.068;2022-07-04T01:12:51;58.23;;;51.50;;
3811;SDS011;1921;49.368;11.068;2022-07-04T01:15:16;68.47;;;53.13;;
3811;SDS011;1921;49.368;11.068;2022-07-04T01:17:42;62.27;;;52.53;;
3811;SDS011;1921;49.368;11.068;2022-07-04T01:20:12;63.30;;;52.73;;
3811;SDS011;1921;49.368;11.068;2022-07-04T01:22:38;64.43;;;52.97;;
3811;SDS011;1921;49.368;11.068;2022-07-04T01:25:04;59.63;;;52.47;;
3811;SDS011;1921;49.368;11.068;2022-07-04T01:27:30;61.90;;;52.23;;
3811;SDS011;1921;49.368;11.068;2022-07-04T01:29:56;62.33;;;52.57;;
3811;SDS011;1921;49.368;11.068;2022-07-04T01:32:22;61.30;;;52.30;;
3811;SDS011;1921;49.368;11.068;2022-07-04T01:34:47;65.47;;;52.50;;
3811;SDS011;1921;49.368;11.068;2022-07-04T01:37:13;60.33;;;51.80;;
3811;SDS011;1921;49.368;11.068;2022-07-04T01:39:39;64.00;;;52.57;;
3811;SDS011;1921;49.368;11.068;2022-07-04T01:42:05;62.30;;;52.30;;
3811;SDS011;1921;49.368;11.068;2022-07-04T01:44:31;62.90;;;52.70;;
3811;SDS011;1921;49.368;11.068;2022-07-04T01:46:57;65.30;;;52.30;;
3811;SDS011;1921;49.368;11.068;2022-07-04T01:49:23;63.20;;;52.33;;
3811;SDS011;1921;49.368;11.068;2022-07-04T01:51:49;67.70;;;52.17;;
3811;SDS011;1921;49.368;11.068;2022-07-04T01:54:16;66.30;;;52.67;;
3811;SDS011;1921;49.368;11.068;2022-07-04T01:56:43;63.27;;;52.20;;
3811;SDS011;1921;49.368;11.068;2022-07-04T01:59:09;60.00;;;51.83;;
3811;SDS011;1921;49.368;11.068;2022-07-04T02:01:35;74.37;;;53.87;;
3811;SDS011;1921;49.368;11.068;2022-07-04T02:04:02;59.57;;;51.80;;
3811;SDS011;1921;49.368;11.068;2022-07-04T02:06:30;63.80;;;52.60;;
3811;SDS011;1921;49.368;11.068;2022-07-04T02:08:56;61.23;;;52.33;;
3811;SDS011;1921;49.368;11.068;2022-07-04T02:11:40;63.93;;;52.90;;
3811;SDS011;1921;49.368;11.068;2022-07-04T02:14:26;61.80;;;52.40;;
3811;SDS011;1921;49.368;11.068;2022-07-04T02:16:51;64.50;;;52.63;;
3811;SDS011;1921;49.368;11.068;2022-07-04T02:19:18;66.40;;;52.90;;
3811;SDS011;1921;49.368;11.068;2022-07-04T02:21:44;66.47;;;53.33;;
3811;SDS011;1921;49.368;11.068;2022-07-04T02:24:09;68.93;;;53.73;;
3811;SDS011;1921;49.368;11.068;2022-07-04T02:26:36;67.20;;;53.07;;
3811;SDS011;1921;49.368;11.068;2022-07-04T02:29:01;58.63;;;51.90;;
3811;SDS011;1921;49.368;11.068;2022-07-04T02:31:27;59.10;;;52.27;;
3811;SDS011;1921;49.368;11.068;2022-07-04T02:33:53;61.50;;;52.50;;
3811;SDS011;1921;49.368;11.068;2022-07-04T02:36:18;62.67;;;52.80;;
3811;SDS011;1921;49.368;11.068;2022-07-04T02:38:44;61.10;;;52.50;;
3811;SDS011;1921;49.368;11.068;2022-07-04T02:41:10;61.60;;;52.47;;
3811;SDS011;1921;49.368;11.068;2022-07-04T02:43:36;62.30;;;52.73;;
3811;SDS011;1921;49.368;11.068;2022-07-04T02:46:01;61.90;;;52.57;;
3811;SDS011;1921;49.368;11.068;2022-07-04T02:48:27;64.23;;;52.87;;
3811;SDS011;1921;49.368;11.068;2022-07-04T02:50:53;61.30;;;52.30;;
3811;SDS011;1921;49.368;11.068;2022-07-04T02:53:18;66.30;;;52.53;;
3811;SDS011;1921;49.368;11.068;2022-07-04T02:55:44;66.20;;;52.77;;
3811;SDS011;1921;49.368;11.068;2022-07-04T02:58:10;75.33;;;54.07;;
3811;SDS011;1921;49.368;11.068;2022-07-04T03:00:35;76.07;;;53.87;;
3811;SDS011;1921;49.368;11.068;2022-07-04T03:03:01;72.60;;;53.33;;
3811;SDS011;1921;49.368;11.068;2022-07-04T03:05:27;81.20;;;54.53;;
3811;SDS011;1921;49.368;11.068;2022-07-04T03:07:56;86.00;;;55.23;;
3811;SDS011;1921;49.368;11.068;2022-07-04T03:10:22;91.47;;;55.80;;
3811;SDS011;1921;49.368;11.068;2022-07-04T03:12:48;95.00;;;56.00;;
3811;SDS011;1921;49.368;11.068;2022-07-04T03:15:14;94.80;;;55.37;;
3811;SDS011;1921;49.368;11.068;2022-07-04T03:17:40;94.30;;;55.37;;
3811;SDS011;1921;49.368;11.068;2022-07-04T03:20:05;101.40;;;55.60;;
3811;SDS011;1921;49.368;11.068;2022-07-04T03:22:32;93.50;;;55.10;;
3811;SDS011;1921;49.368;11.068;2022-07-04T03:24:58;98.60;;;55.30;;
3811;SDS011;1921;49.368;11.068;2022-07-04T03:27:24;99.70;;;55.37;;
3811;SDS011;1921;49.368;11.068;2022-07-04T03:29:49;92.80;;;54.90;;
3811;SDS011;1921;49.368;11.068;2022-07-04T03:32:15;99.30;;;55.60;;
3811;SDS011;1921;49.368;11.068;2022-07-04T03:34:41;111.63;;;56.40;;
3811;SDS011;1921;49.368;11.068;2022-07-04T03:37:07;99.70;;;55.80;;
3811;SDS011;1921;49.368;11.068;2022-07-04T03:39:32;98.07;;;55.50;;
3811;SDS011;1921;49.368;11.068;2022-07-04T03:41:58;98.30;;;55.50;;
3811;SDS011;1921;49.368;11.068;2022-07-04T03:44:24;93.07;;;55.10;;
3811;SDS011;1921;49.368;11.068;2022-07-04T03:46:49;88.77;;;54.90;;
3811;SDS011;1921;49.368;11.068;2022-07-04T03:49:15;84.20;;;54.53;;
3811;SDS011;1921;49.368;11.068;2022-07-04T03:51:41;89.13;;;55.10;;
3811;SDS011;1921;49.368;11.068;2022-07-04T03:54:07;83.83;;;54.13;;
3811;SDS011;1921;49.368;11.068;2022-07-04T03:56:32;89.53;;;54.70;;
3811;SDS011;1921;49.368;11.068;2022-07-04T03:58:58;86.83;;;54.50;;
3811;SDS011;1921;49.368;11.068;2022-07-04T04:01:24;87.03;;;54.50;;
3811;SDS011;1921;49.368;11.068;2022-07-04T04:03:49;75.23;;;53.40;;
3811;SDS011;1921;49.368;11.068;2022-07-04T04:06:33;74.40;;;53.67;;
3811;SDS011;1921;49.368;11.068;2022-07-04T04:08:59;72.77;;;53.40;;
3811;SDS011;1921;49.368;11.068;2022-07-04T04:11:25;68.60;;;52.53;;
3811;SDS011;1921;49.368;11.068;2022-07-04T04:13:50;65.50;;;52.00;;
3811;SDS011;1921;49.368;11.068;2022-07-04T04:16:16;60.20;;;51.40;;
3811;SDS011;1921;49.368;11.068;2022-07-04T04:18:42;62.63;;;51.80;;
3811;SDS011;1921;49.368;11.068;2022-07-04T04:21:08;62.07;;;51.27;;
3811;SDS011;1921;49.368;11.068;2022-07-04T04:23:34;58.77;;;50.93;;
3811;SDS011;1921;49.368;11.068;2022-07-04T04:25:59;63.40;;;51.53;;
3811;SDS011;1921;49.368;11.068;2022-07-04T04:28:25;61.90;;;51.57;;
3811;SDS011;1921;49.368;11.068;2022-07-04T04:30:51;61.53;;;51.30;;
3811;SDS011;1921;49.368;11.068;2022-07-04T04:33:17;66.03;;;51.50;;
3811;SDS011;1921;49.368;11.068;2022-07-04T04:35:42;64.57;;;51.70;;
3811;SDS011;1921;49.368;11.068;2022-07-04T04:38:09;62.90;;;51.53;;
3811;SDS011;1921;49.368;11.068;2022-07-04T04:40:35;63.87;;;51.63;;
3811;SDS011;1921;49.368;11.068;2022-07-04T04:43:01;67.87;;;52.47;;
3811;SDS011;1921;49.368;11.068;2022-07-04T04:45:27;79.83;;;53.30;;
3811;SDS011;1921;49.368;11.068;2022-07-04T04:47:53;76.40;;;53.17;;
3811;SDS011;1921;49.368;11.068;2022-07-04T04:50:19;91.43;;;54.33;;
3811;SDS011;1921;49.368;11.068;2022-07-04T04:52:46;86.33;;;54.00;;
3811;SDS011;1921;49.368;11.068;2022-07-04T04:55:11;90.80;;;54.40;;
3811;SDS011;1921;49.368;11.068;2022-07-04T04:57:37;89.20;;;54.63;;
3811;SDS011;1921;49.368;11.068;2022-07-04T05:00:04;97.33;;;54.80;;
3811;SDS011;1921;49.368;11.068;2022-07-04T05:02:30;66.10;;;51.97;;
3811;SDS011;1921;49.368;11.068;2022-07-04T05:04:56;64.77;;;52.10;;
3811;SDS011;1921;49.368;11.068;2022-07-04T05:07:22;62.50;;;51.53;;
3811;SDS011;1921;49.368;11.068;2022-07-04T05:09:48;61.27;;;50.90;;
3811;SDS011;1921;49.368;11.068;2022-07-04T05:12:13;63.13;;;52.00;;
3811;SDS011;1921;49.368;11.068;2022-07-04T05:14:40;60.00;;;51.60;;
3811;SDS011;1921;49.368;11.068;2022-07-04T05:17:06;65.63;;;52.50;;
3811;SDS011;1921;49.368;11.068;2022-07-04T05:19:32;64.10;;;51.70;;
3811;SDS011;1921;49.368;11.068;2022-07-04T05:21:58;63.63;;;52.40;;
3811;SDS011;1921;49.368;11.068;2022-07-04T05:24:23;63.17;;;51.87;;
3811;SDS011;1921;49.368;11.068;2022-07-04T05:26:49;65.47;;;52.63;;
3811;SDS011;1921;49.368;11.068;2022-07-04T05:29:15;64.57;;;52.47;;
3811;SDS011;1921;49.368;11.068;2022-07-04T05:31:41;63.10;;;51.70;;
3811;SDS011;1921;49.368;11.068;2022-07-04T05:34:07;62.90;;;51.73;;
3811;SDS011;1921;49.368;11.068;2022-07-04T05:36:33;62.80;;;52.00;;
3811;SDS011;1921;49.368;11.068;2022-07-04T05:38:58;63.30;;;52.27;;
3811;SDS011;1921;49.368;11.068;2022-07-04T05:41:24;62.93;;;52.23;;
3811;SDS011;1921;49.368;11.068;2022-07-04T05:43:50;62.77;;;52.07;;
3811;SDS011;1921;49.368;11.068;2022-07-04T05:46:16;62.60;;;52.37;;
3811;SDS011;1921;49.368;11.068;2022-07-04T05:48:42;63.90;;;52.50;;
3811;SDS011;1921;49.368;11.068;2022-07-04T05:51:07;65.93;;;52.27;;
3811;SDS011;1921;49.368;11.068;2022-07-04T05:53:33;62.27;;;52.37;;
3811;SDS011;1921;49.368;11.068;2022-07-04T05:55:59;63.10;;;51.90;;
3811;SDS011;1921;49.368;11.068;2022-07-04T05:58:25;59.10;;;51.43;;
3811;SDS011;1921;49.368;11.068;2022-07-04T06:00:51;60.17;;;52.23;;
3811;SDS011;1921;49.368;11.068;2022-07-04T06:03:17;62.07;;;52.10;;
3811;SDS011;1921;49.368;11.068;2022-07-04T06:05:43;59.60;;;51.57;;
3811;SDS011;1921;49.368;11.068;2022-07-04T06:08:08;59.47;;;51.77;;
3811;SDS011;1921;49.368;11.068;2022-07-04T06:10:34;59.60;;;52.10;;
3811;SDS011;1921;49.368;11.068;2022-07-04T06:13:00;60.10;;;51.83;;
3811;SDS011;1921;49.368;11.068;2022-07-04T06:15:25;61.40;;;52.43;;
3811;SDS011;1921;49.368;11.068;2022-07-04T06:17:51;63.07;;;52.30;;
3811;SDS011;1921;49.368;11.068;2022-07-04T06:20:17;60.67;;;52.20;;
3811;SDS011;1921;49.368;11.068;2022-07-04T06:22:47;61.80;;;52.67;;
3811;SDS011;1921;49.368;11.068;2022-07-04T06:25:15;60.77;;;52.57;;
3811;SDS011;1921;49.368;11.068;2022-07-04T06:27:43;62.23;;;52.23;;
3811;SDS011;1921;49.368;11.068;2022-07-04T06:30:11;60.27;;;52.70;;
3811;SDS011;1921;49.368;11.068;2022-07-04T06:32:42;59.97;;;52.40;;
3811;SDS011;1921;49.368;11.068;2022-07-04T06:35:20;59.60;;;52.20;;
3811;SDS011;1921;49.368;11.068;2022-07-04T06:38:07;59.90;;;52.30;;
3811;SDS011;1921;49.368;11.068;2022-07-04T06:40:33;59.33;;;51.80;;
3811;SDS011;1921;49.368;11.068;2022-07-04T06:43:00;59.90;;;52.00;;
3811;SDS011;1921;49.368;11.068;2022-07-04T06:45:26;60.57;;;52.57;;
3811;SDS011;1921;49.368;11.068;2022-07-04T06:47:52;60.40;;;52.60;;
3811;SDS011;1921;49.368;11.068;2022-07-04T06:50:18;60.93;;;52.70;;
3811;SDS011;1921;49.368;11.068;2022-07-04T06:52:44;61.23;;;52.93;;
3811;SDS011;1921;49.368;11.068;2022-07-04T06:55:11;60.23;;;53.00;;
3811;SDS011;1921;49.368;11.068;2022-07-04T06:57:37;61.10;;;53.33;;
3811;SDS011;1921;49.368;11.068;2022-07-04T07:00:03;62.83;;;53.50;;
3811;SDS011;1921;49.368;11.068;2022-07-04T07:02:31;63.60;;;53.30;;
3811;SDS011;1921;49.368;11.068;2022-07-04T07:04:59;62.37;;;53.70;;
3811;SDS011;1921;49.368;11.068;2022-07-04T07:07:24;63.50;;;53.90;;
3811;SDS011;1921;49.368;11.068;2022-07-04T07:09:52;63.80;;;54.13;;
3811;SDS011;1921;49.368;11.068;2022-07-04T07:12:18;68.20;;;54.20;;
3811;SDS011;1921;49.368;11.068;2022-07-04T07:14:44;64.13;;;54.53;;
3811;SDS011;1921;49.368;11.068;2022-07-04T07:17:10;70.60;;;54.60;;
3811;SDS011;1921;49.368;11.068;2022-07-04T07:19:35;64.83;;;54.10;;
3811;SDS011;1921;49.368;11.068;2022-07-04T07:22:01;66.17;;;55.13;;
3811;SDS011;1921;49.368;11.068;2022-07-04T07:24:27;66.60;;;54.73;;
3811;SDS011;1921;49.368;11.068;2022-07-04T07:26:55;66.33;;;55.57;;
3811;SDS011;1921;49.368;11.068;2022-07-04T07:29:22;64.10;;;54.17;;
3811;SDS011;1921;49.368;11.068;2022-07-04T07:31:48;69.63;;;54.90;;
3811;SDS011;1921;49.368;11.068;2022-07-04T07:34:14;66.40;;;55.07;;
3811;SDS011;1921;49.368;11.068;2022-07-04T07:36:40;64.40;;;54.70;;
3811;SDS011;1921;49.368;11.068;2022-07-04T07:39:06;65.07;;;54.30;;
3811;SDS011;1921;49.368;11.068;2022-07-04T07:41:32;64.90;;;54.70;;
3811;SDS011;1921;49.368;11.068;2022-07-04T07:43:57;64.47;;;54.77;;
3811;SDS011;1921;49.368;11.068;2022-07-04T07:46:23;64.57;;;54.30;;
3811;SDS011;1921;49.368;11.068;2022-07-04T07:48:49;63.80;;;54.70;;
3811;SDS011;1921;49.368;11.068;2022-07-04T07:51:14;66.50;;;54.17;;
3811;SDS011;1921;49.368;11.068;2022-07-04T07:53:41;63.80;;;54.80;;
3811;SDS011;1921;49.368;11.068;2022-07-04T07:56:08;66.40;;;54.60;;
3811;SDS011;1921;49.368;11.068;2022-07-04T07:58:34;69.00;;;54.37;;
3811;SDS011;1921;49.368;11.068;2022-07-04T08:01:00;64.97;;;54.53;;
3811;SDS011;1921;49.368;11.068;2022-07-04T08:03:29;66.40;;;55.30;;
3811;SDS011;1921;49.368;11.068;2022-07-04T08:06:14;62.77;;;53.93;;
3811;SDS011;1921;49.368;11.068;2022-07-04T08:08:41;62.70;;;53.80;;
3811;SDS011;1921;49.368;11.068;2022-07-04T08:11:07;65.17;;;53.80;;
3811;SDS011;1921;49.368;11.068;2022-07-04T08:13:37;66.17;;;54.37;;
3811;SDS011;1921;49.368;11.068;2022-07-04T08:16:04;64.80;;;54.40;;
3811;SDS011;1921;49.368;11.068;2022-07-04T08:18:31;63.60;;;54.60;;
3811;SDS011;1921;49.368;11.068;2022-07-04T08:20:58;63.43;;;54.53;;
3811;SDS011;1921;49.368;11.068;2022-07-04T08:23:24;65.03;;;55.00;;
3811;SDS011;1921;49.368;11.068;2022-07-04T08:25:52;62.60;;;54.20;;
3811;SDS011;1921;49.368;11.068;2022-07-04T08:28:18;65.20;;;54.50;;
3811;SDS011;1921;49.368;11.068;2022-07-04T08:30:43;63.50;;;54.53;;
3811;SDS011;1921;49.368;11.068;2022-07-04T08:33:09;63.90;;;53.87;;
3811;SDS011;1921;49.368;11.068;2022-07-04T08:35:35;66.50;;;54.60;;
3811;SDS011;1921;49.368;11.068;2022-07-04T08:38:01;65.03;;;54.83;;
3811;SDS011;1921;49.368;11.068;2022-07-04T08:40:27;65.43;;;55.07;;
3811;SDS011;1921;49.368;11.068;2022-07-04T08:42:55;63.03;;;54.70;;
3811;SDS011;1921;49.368;11.068;2022-07-04T08:45:29;64.40;;;54.97;;
3811;SDS011;1921;49.368;11.068;2022-07-04T08:48:02;64.80;;;55.30;;
3811;SDS011;1921;49.368;11.068;2022-07-04T08:53:15;67.73;;;56.47;;
3811;SDS011;1921;49.368;11.068;2022-07-04T08:55:46;66.30;;;55.37;;
3811;SDS011;1921;49.368;11.068;2022-07-04T08:58:31;66.97;;;55.67;;
3811;SDS011;1921;49.368;11.068;2022-07-04T09:00:59;65.67;;;55.13;;
3811;SDS011;1921;49.368;11.068;2022-07-04T09:03:31;67.37;;;55.00;;
3811;SDS011;1921;49.368;11.068;2022-07-04T09:05:58;68.07;;;55.80;;
3811;SDS011;1921;49.368;11.068;2022-07-04T09:08:24;64.67;;;54.97;;
3811;SDS011;1921;49.368;11.068;2022-07-04T09:10:51;65.70;;;54.70;;
3811;SDS011;1921;49.368;11.068;2022-07-04T09:13:18;66.90;;;54.73;;
3811;SDS011;1921;49.368;11.068;2022-07-04T09:15:45;64.30;;;54.83;;
3811;SDS011;1921;49.368;11.068;2022-07-04T09:20:49;65.00;;;54.83;;
3811;SDS011;1921;49.368;11.068;2022-07-04T09:23:17;65.63;;;55.37;;
3811;SDS011;1921;49.368;11.068;2022-07-04T09:25:47;69.67;;;55.23;;
3811;SDS011;1921;49.368;11.068;2022-07-04T09:28:50;64.27;;;55.20;;
3811;SDS011;1921;49.368;11.068;2022-07-04T09:31:21;66.50;;;55.20;;
3811;SDS011;1921;49.368;11.068;2022-07-04T09:36:19;65.23;;;55.20;;
3811;SDS011;1921;49.368;11.068;2022-07-04T09:39:09;65.90;;;55.33;;
3811;SDS011;1921;49.368;11.068;2022-07-04T09:41:49;66.00;;;55.60;;
3811;SDS011;1921;49.368;11.068;2022-07-04T09:44:29;78.47;;;55.67;;
3811;SDS011;1921;49.368;11.068;2022-07-04T09:47:26;65.40;;;55.47;;
3811;SDS011;1921;49.368;11.068;2022-07-04T09:50:04;65.00;;;55.07;;
3811;SDS011;1921;49.368;11.068;2022-07-04T09:52:54;66.63;;;54.80;;
3811;SDS011;1921;49.368;11.068;2022-07-04T09:55:35;64.80;;;54.80;;
3811;SDS011;1921;49.368;11.068;2022-07-04T09:58:03;65.53;;;55.53;;
3811;SDS011;1921;49.368;11.068;2022-07-04T10:00:36;64.27;;;55.27;;
3811;SDS011;1921;49.368;11.068;2022-07-04T10:03:17;65.73;;;55.30;;
3811;SDS011;1921;49.368;11.068;2022-07-04T10:06:01;70.23;;;55.50;;
3811;SDS011;1921;49.368;11.068;2022-07-04T10:08:41;66.47;;;55.37;;
3811;SDS011;1921;49.368;11.068;2022-07-04T10:11:09;65.27;;;55.37;;
3811;SDS011;1921;49.368;11.068;2022-07-04T10:13:35;66.37;;;55.20;;
3811;SDS011;1921;49.368;11.068;2022-07-04T10:16:03;65.90;;;55.83;;
3811;SDS011;1921;49.368;11.068;2022-07-04T10:18:29;63.90;;;54.60;;
3811;SDS011;1921;49.368;11.068;2022-07-04T10:20:55;65.70;;;55.57;;
3811;SDS011;1921;49.368;11.068;2022-07-04T10:23:22;70.37;;;55.30;;
3811;SDS011;1921;49.368;11.068;2022-07-04T10:25:55;64.70;;;55.77;;
3811;SDS011;1921;49.368;11.068;2022-07-04T10:28:21;63.80;;;55.00;;
3811;SDS011;1921;49.368;11.068;2022-07-04T10:30:50;68.50;;;54.67;;
3811;SDS011;1921;49.368;11.068;2022-07-04T10:33:22;64.10;;;54.80;;
3811;SDS011;1921;49.368;11.068;2022-07-04T10:38:26;64.72;;;55.05;;
3811;SDS011;1921;49.368;11.068;2022-07-04T10:48:30;64.57;;;54.55;;
3811;SDS011;1921;49.368;11.068;2022-07-04T10:51:04;64.95;;;54.58;;
3811;SDS011;1921;49.368;11.068;2022-07-04T10:53:32;63.50;;;54.85;;
3811;SDS011;1921;49.368;11.068;2022-07-04T10:58:44;63.70;;;54.50;;
3811;SDS011;1921;49.368;11.068;2022-07-04T11:03:50;65.20;;;54.93;;
3811;SDS011;1921;49.368;11.068;2022-07-04T11:14:34;63.23;;;54.30;;
3811;SDS011;1921;49.368;11.068;2022-07-04T11:19:46;66.33;;;54.10;;
3811;SDS011;1921;49.368;11.068;2022-07-04T11:22:14;66.33;;;53.93;;
3811;SDS011;1921;49.368;11.068;2022-07-04T11:24:48;61.90;;;54.10;;
3811;SDS011;1921;49.368;11.068;2022-07-04T11:27:14;66.50;;;54.00;;
3811;SDS011;1921;49.368;11.068;2022-07-04T11:29:50;62.90;;;54.00;;
3811;SDS011;1921;49.368;11.068;2022-07-04T11:32:17;65.10;;;54.30;;
3811;SDS011;1921;49.368;11.068;2022-07-04T11:34:43;63.60;;;54.10;;
3811;SDS011;1921;49.368;11.068;2022-07-04T11:37:09;62.77;;;54.07;;
3811;SDS011;1921;49.368;11.068;2022-07-04T11:39:35;66.07;;;54.07;;
3811;SDS011;1921;49.368;11.068;2022-07-04T11:42:01;64.93;;;54.37;;
3811;SDS011;1921;49.368;11.068;2022-07-04T11:44:45;64.07;;;54.07;;
3811;SDS011;1921;49.368;11.068;2022-07-04T11:47:33;66.70;;;54.20;;
3811;SDS011;1921;49.368;11.068;2022-07-04T11:55:02;63.60;;;53.97;;
3811;SDS011;1921;49.368;11.068;2022-07-04T11:57:33;66.00;;;54.17;;
3811;SDS011;1921;49.368;11.068;2022-07-04T12:00:05;66.35;;;54.88;;
3811;SDS011;1921;49.368;11.068;2022-07-04T12:02:36;63.58;;;53.60;;
3811;SDS011;1921;49.368;11.068;2022-07-04T12:05:03;65.87;;;54.90;;
3811;SDS011;1921;49.368;11.068;2022-07-04T12:07:33;63.83;;;54.30;;
3811;SDS011;1921;49.368;11.068;2022-07-04T12:12:56;64.50;;;53.97;;
3811;SDS011;1921;49.368;11.068;2022-07-04T12:21:10;64.40;;;54.13;;
3811;SDS011;1921;49.368;11.068;2022-07-04T12:23:40;64.53;;;54.33;;
3811;SDS011;1921;49.368;11.068;2022-07-04T12:26:07;64.50;;;54.20;;
3811;SDS011;1921;49.368;11.068;2022-07-04T12:28:35;63.20;;;53.80;;
3811;SDS011;1921;49.368;11.068;2022-07-04T12:31:01;62.47;;;54.00;;
3811;SDS011;1921;49.368;11.068;2022-07-04T12:33:29;63.53;;;54.47;;
3811;SDS011;1921;49.368;11.068;2022-07-04T12:36:02;63.70;;;54.17;;
3811;SDS011;1921;49.368;11.068;2022-07-04T12:38:35;62.77;;;53.90;;
3811;SDS011;1921;49.368;11.068;2022-07-04T12:46:07;64.55;;;54.15;;
3811;SDS011;1921;49.368;11.068;2022-07-04T12:48:34;63.85;;;54.17;;
3811;SDS011;1921;49.368;11.068;2022-07-04T12:51:14;67.45;;;54.95;;
3811;SDS011;1921;49.368;11.068;2022-07-04T12:53:45;65.70;;;54.67;;
3811;SDS011;1921;49.368;11.068;2022-07-04T12:56:36;65.00;;;55.05;;
3811;SDS011;1921;49.368;11.068;2022-07-04T12:59:03;64.82;;;54.90;;
3811;SDS011;1921;49.368;11.068;2022-07-04T13:01:38;64.57;;;55.13;;
3811;SDS011;1921;49.368;11.068;2022-07-04T13:04:08;63.70;;;54.72;;
3811;SDS011;1921;49.368;11.068;2022-07-04T13:06:35;66.60;;;54.80;;
3811;SDS011;1921;49.368;11.068;2022-07-04T13:09:02;66.30;;;55.80;;
3811;SDS011;1921;49.368;11.068;2022-07-04T13:11:32;64.43;;;54.75;;
3811;SDS011;1921;49.368;11.068;2022-07-04T13:14:17;69.97;;;55.40;;
3811;SDS011;1921;49.368;11.068;2022-07-04T13:16:44;64.40;;;54.42;;
3811;SDS011;1921;49.368;11.068;2022-07-04T13:19:09;67.13;;;55.53;;
3811;SDS011;1921;49.368;11.068;2022-07-04T13:21:36;66.50;;;55.40;;
3811;SDS011;1921;49.368;11.068;2022-07-04T13:24:02;67.88;;;55.45;;
3811;SDS011;1921;49.368;11.068;2022-07-04T13:26:28;69.35;;;55.75;;
3811;SDS011;1921;49.368;11.068;2022-07-04T13:28:55;68.45;;;55.78;;
3811;SDS011;1921;49.368;11.068;2022-07-04T13:31:21;70.25;;;56.17;;
3811;SDS011;1921;49.368;11.068;2022-07-04T13:33:47;67.65;;;55.70;;
3811;SDS011;1921;49.368;11.068;2022-07-04T13:36:13;65.60;;;55.40;;
3811;SDS011;1921;49.368;11.068;2022-07-04T13:38:39;64.72;;;55.15;;
3811;SDS011;1921;49.368;11.068;2022-07-04T13:41:06;65.60;;;55.20;;
3811;SDS011;1921;49.368;11.068;2022-07-04T13:43:32;67.30;;;54.85;;
3811;SDS011;1921;49.368;11.068;2022-07-04T13:45:57;66.47;;;55.08;;
3811;SDS011;1921;49.368;11.068;2022-07-04T13:48:23;69.80;;;55.20;;
3811;SDS011;1921;49.368;11.068;2022-07-04T13:50:49;64.93;;;54.90;;
3811;SDS011;1921;49.368;11.068;2022-07-04T13:53:16;67.13;;;55.22;;
3811;SDS011;1921;49.368;11.068;2022-07-04T13:55:42;65.25;;;55.38;;
3811;SDS011;1921;49.368;11.068;2022-07-04T13:58:10;66.13;;;55.47;;
3811;SDS011;1921;49.368;11.068;2022-07-04T14:00:36;67.65;;;55.80;;
3811;SDS011;1921;49.368;11.068;2022-07-04T14:03:05;65.90;;;55.30;;
3811;SDS011;1921;49.368;11.068;2022-07-04T14:05:32;65.00;;;55.00;;
3811;SDS011;1921;49.368;11.068;2022-07-04T14:07:58;65.53;;;55.45;;
3811;SDS011;1921;49.368;11.068;2022-07-04T14:10:24;64.50;;;55.55;;
3811;SDS011;1921;49.368;11.068;2022-07-04T14:12:50;68.68;;;55.45;;
3811;SDS011;1921;49.368;11.068;2022-07-04T14:15:16;66.50;;;55.17;;
3811;SDS011;1921;49.368;11.068;2022-07-04T14:17:42;65.38;;;55.33;;
3811;SDS011;1921;49.368;11.068;2022-07-04T14:20:08;64.28;;;54.72;;
3811;SDS011;1921;49.368;11.068;2022-07-04T14:22:36;64.80;;;54.83;;
3811;SDS011;1921;49.368;11.068;2022-07-04T14:25:03;67.78;;;55.17;;
3811;SDS011;1921;49.368;11.068;2022-07-04T14:27:30;70.95;;;55.58;;
3811;SDS011;1921;49.368;11.068;2022-07-04T14:29:56;65.60;;;54.95;;
3811;SDS011;1921;49.368;11.068;2022-07-04T14:32:21;67.25;;;54.75;;
3811;SDS011;1921;49.368;11.068;2022-07-04T14:34:47;65.50;;;55.20;;
3811;SDS011;1921;49.368;11.068;2022-07-04T14:37:13;67.38;;;55.30;;
3811;SDS011;1921;49.368;11.068;2022-07-04T14:39:39;65.28;;;55.05;;
3811;SDS011;1921;49.368;11.068;2022-07-04T14:42:05;65.60;;;55.00;;
3811;SDS011;1921;49.368;11.068;2022-07-04T14:44:30;65.90;;;54.78;;
3811;SDS011;1921;49.368;11.068;2022-07-04T14:47:00;66.35;;;55.22;;
3811;SDS011;1921;49.368;11.068;2022-07-04T14:49:27;64.65;;;54.80;;
3811;SDS011;1921;49.368;11.068;2022-07-04T14:51:53;64.97;;;55.13;;
3811;SDS011;1921;49.368;11.068;2022-07-04T14:54:19;64.20;;;54.30;;
3811;SDS011;1921;49.368;11.068;2022-07-04T14:56:44;64.85;;;54.33;;
3811;SDS011;1921;49.368;11.068;2022-07-04T14:59:10;66.30;;;54.35;;
3811;SDS011;1921;49.368;11.068;2022-07-04T15:01:36;66.60;;;55.05;;
3811;SDS011;1921;49.368;11.068;2022-07-04T15:04:02;65.63;;;54.88;;
3811;SDS011;1921;49.368;11.068;2022-07-04T15:06:27;70.78;;;55.25;;
3811;SDS011;1921;49.368;11.068;2022-07-04T15:08:53;65.95;;;54.95;;
3811;SDS011;1921;49.368;11.068;2022-07-04T15:11:19;67.28;;;55.03;;
3811;SDS011;1921;49.368;11.068;2022-07-04T15:13:45;66.10;;;55.17;;
3811;SDS011;1921;49.368;11.068;2022-07-04T15:16:11;64.43;;;54.65;;
3811;SDS011;1921;49.368;11.068;2022-07-04T15:18:36;64.95;;;54.22;;
3811;SDS011;1921;49.368;11.068;2022-07-04T15:21:02;65.47;;;54.58;;
3811;SDS011;1921;49.368;11.068;2022-07-04T15:23:46;63.17;;;54.05;;
3811;SDS011;1921;49.368;11.068;2022-07-04T15:26:30;64.65;;;54.50;;
3811;SDS011;1921;49.368;11.068;2022-07-04T15:28:56;66.55;;;55.08;;
3811;SDS011;1921;49.368;11.068;2022-07-04T15:31:22;64.47;;;54.67;;